Time;durP1;ratioP1;P1;durP2;ratioP2;P2;SDS_P1;SDS_P2;PMS_P1;PMS_P2;Temp;Humidity;BMP_temperature;BMP_pressure;BME280_temperature;BME280_humidity;BME280_pressure;Samples;Min_cycle;Max_cycle;Signal;HPM_P1;HPM_P2
2022/08/08 00:00:55;;;;;;;3.40;1.80;;;;;;;15.30;100.00;102584.44;5090609;28;20489;-31
2022/08/08 00:03:46;;;;;;;3.35;1.70;;;;;;;15.29;100.00;102577.97;5073261;28;20547;-31
2022/08/08 00:06:26;;;;;;;2.65;1.70;;;;;;;15.30;100.00;102581.63;5091555;28;20147;-36
2022/08/08 00:09:05;;;;;;;5.15;2.30;;;;;;;15.29;100.00;102575.16;5092845;28;20450;-30
2022/08/08 00:11:39;;;;;;;3.58;2.10;;;;;;;15.31;100.00;102575.72;5093113;28;20574;-32
2022/08/08 00:14:39;;;;;;;3.65;2.40;;;;;;;15.29;100.00;102582.75;5093088;28;20044;-38
2022/08/08 00:17:43;;;;;;;4.60;2.53;;;;;;;15.27;100.00;102585.03;5082008;28;20130;-32
2022/08/08 00:20:35;;;;;;;4.45;2.25;;;;;;;15.26;100.00;102580.53;5092061;28;20086;-32
2022/08/08 00:23:07;;;;;;;4.28;2.20;;;;;;;15.25;100.00;102576.88;5092323;28;20113;-34
2022/08/08 00:25:39;;;;;;;2.95;2.20;;;;;;;15.25;100.00;102570.41;5092616;28;20032;-31
2022/08/08 00:28:21;;;;;;;4.65;2.28;;;;;;;15.23;100.00;102567.03;5093039;28;20540;-36
2022/08/08 00:31:08;;;;;;;4.13;2.33;;;;;;;15.21;100.00;102569.28;5091784;28;20130;-34
2022/08/08 00:37:06;;;;;;;3.33;2.05;;;;;;;15.13;100.00;102576.38;5090824;28;20073;-35
2022/08/08 00:40:15;;;;;;;3.40;2.47;;;;;;;15.12;100.00;102577.50;5072471;28;20074;-31
2022/08/08 00:43:26;;;;;;;2.80;2.05;;;;;;;15.07;100.00;102580.34;5090341;28;20040;-31
2022/08/08 00:46:44;;;;;;;3.13;1.92;;;;;;;15.05;100.00;102574.16;5092342;28;20188;-32
2022/08/08 00:49:49;;;;;;;4.53;2.08;;;;;;;14.98;100.00;102568.03;5092835;28;20048;-33
2022/08/08 00:52:52;;;;;;;3.15;2.10;;;;;;;14.96;100.00;102573.09;5090637;28;20047;-38
2022/08/08 00:55:53;;;;;;;4.38;2.75;;;;;;;14.96;100.00;102575.91;5071261;28;20143;-31
2022/08/08 00:58:58;;;;;;;3.30;1.83;;;;;;;14.94;100.00;102575.34;5087350;28;20147;-32
2022/08/08 01:01:33;;;;;;;3.60;2.10;;;;;;;14.91;100.00;102573.09;5076215;28;20043;-31
2022/08/08 01:04:53;;;;;;;3.50;2.28;;;;;;;14.92;100.00;102572.81;5081407;28;20074;-31
2022/08/08 01:08:01;;;;;;;3.85;2.20;;;;;;;14.91;100.00;102559.03;5089920;28;20146;-32
2022/08/08 01:11:06;;;;;;;4.25;2.08;;;;;;;14.88;100.00;102565.22;5080240;28;20075;-37
2022/08/08 01:14:36;;;;;;;4.25;1.90;;;;;;;14.85;100.00;102555.41;5090442;28;20047;-36
2022/08/08 01:17:56;;;;;;;2.90;1.77;;;;;;;14.79;100.00;102560.19;4998332;28;20049;-31
2022/08/08 01:20:54;;;;;;;2.78;1.77;;;;;;;14.78;100.00;102564.16;5052239;28;20039;-33
2022/08/08 01:23:56;;;;;;;3.63;2.00;;;;;;;14.77;100.00;102550.38;5090312;28;20072;-32
2022/08/08 01:27:32;;;;;;;4.05;1.90;;;;;;;14.75;100.00;102547.88;5069822;28;20054;-36
2022/08/08 01:30:44;;;;;;;4.90;2.03;;;;;;;14.70;100.00;102550.69;5083132;28;20050;-33
2022/08/08 01:33:52;;;;;;;2.97;1.48;;;;;;;14.73;100.00;102561.34;5089947;28;20394;-32
2022/08/08 01:37:05;;;;;;;4.03;1.40;;;;;;;14.72;100.00;102554.06;5071684;28;20037;-34
2022/08/08 01:40:01;;;;;;;2.60;1.40;;;;;;;14.71;100.00;102563.59;5089313;28;20143;-33
2022/08/08 01:42:39;;;;;;;3.30;1.30;;;;;;;14.70;100.00;102567.53;5089567;28;20075;-32
2022/08/08 01:45:32;;;;;;;3.03;1.25;;;;;;;14.71;100.00;102569.22;5090435;28;20505;-37
2022/08/08 01:48:11;;;;;;;2.25;1.40;;;;;;;14.73;100.00;102569.78;5089203;28;20048;-35
2022/08/08 01:51:20;;;;;;;2.85;1.42;;;;;;;14.73;100.00;102569.78;5082399;28;20056;-31
2022/08/08 01:54:21;;;;;;;1.90;1.20;;;;;;;14.75;100.00;102577.94;5089247;28;20048;-35
2022/08/08 01:57:21;;;;;;;3.45;1.30;;;;;;;14.79;100.00;102579.03;5070257;28;20049;-32
2022/08/08 02:00:14;;;;;;;2.85;1.50;;;;;;;14.89;100.00;102578.16;5087925;28;20055;-37
2022/08/08 02:03:23;;;;;;;2.72;1.23;;;;;;;14.92;100.00;102583.22;5090244;28;20044;-33
2022/08/08 02:06:23;;;;;;;4.00;1.20;;;;;;;14.92;100.00;102589.69;5079786;28;20598;-32
2022/08/08 02:09:09;;;;;;;2.78;1.30;;;;;;;14.95;100.00;102589.09;5089068;28;20048;-35
2022/08/08 02:11:48;;;;;;;4.28;1.50;;;;;;;14.98;100.00;102588.53;5089439;28;20109;-32
2022/08/08 02:14:39;;;;;;;3.25;1.27;;;;;;;15.01;100.00;102582.31;5089492;28;20048;-38
2022/08/08 02:17:34;;;;;;;2.72;1.17;;;;;;;15.05;100.00;102574.16;5089967;28;20135;-39
2022/08/08 02:20:24;;;;;;;3.53;1.38;;;;;;;15.09;100.00;102578.06;5089888;28;20051;-31
2022/08/08 02:23:23;;;;;;;1.83;0.80;;;;;;;15.08;100.00;102573.59;5070820;28;20409;-31
2022/08/08 02:26:07;;;;;;;2.80;1.10;;;;;;;15.06;100.00;102573.88;5088601;28;20044;-38
2022/08/08 02:28:58;;;;;;;3.60;1.10;;;;;;;15.07;100.00;102580.34;5089513;28;20048;-34
2022/08/08 02:31:43;;;;;;;2.00;1.02;;;;;;;15.05;100.00;102576.97;5086672;28;20459;-32
2022/08/08 02:34:45;;;;;;;4.88;1.00;;;;;;;15.05;100.00;102589.06;5089847;28;20413;-31
2022/08/08 02:37:52;;;;;;;3.28;1.17;;;;;;;15.06;100.00;102584.28;5081776;28;20075;-36
2022/08/08 02:40:39;;;;;;;3.22;1.00;;;;;;;15.10;100.00;102585.38;5089515;28;20052;-41
2022/08/08 02:43:38;;;;;;;3.50;1.15;;;;;;;15.15;100.00;102576.94;5089383;28;20472;-34
2022/08/08 02:46:54;;;;;;;1.90;0.90;;;;;;;15.19;100.00;102588.47;5088081;28;20133;-38
2022/08/08 02:49:57;;;;;;;4.40;1.30;;;;;;;15.25;100.00;102587.28;5090066;28;20044;-33
2022/08/08 02:52:36;;;;;;;;;;;;;;;15.26;100.00;102580.53;5087217;28;20048;-32
2022/08/08 02:55:19;;;;;;;;;;;;;;;15.25;100.00;102581.66;5091265;28;19935;-32
2022/08/08 02:58:16;;;;;;;;;;;;;;;15.27;100.00;102585.88;5088107;28;19963;-30
2022/08/08 03:01:04;;;;;;;;;;;;;;;15.31;100.00;102586.13;5090635;28;19947;-31
2022/08/08 03:04:00;;;;;;;;;;;;;;;15.33;100.00;102593.16;5084113;28;20011;-30
2022/08/08 03:07:18;;;;;;;;;;;;;;;15.33;100.00;102583.88;5093584;28;20285;-31
2022/08/08 03:10:04;;;;;;;;;;;;;;;15.35;100.00;102588.09;5077923;28;20296;-32
2022/08/08 03:12:56;;;;;;;;;;;;;;;15.40;100.00;102587.19;5052717;28;19928;-31
2022/08/08 03:15:44;;;;;;;;;;;;;;;15.43;100.00;102595.91;5091478;28;20031;-40
2022/08/08 03:18:35;;;;;;;;;;;;;;;15.48;100.00;102595.03;5080958;28;19920;-34
2022/08/08 03:21:05;;;;;;;;;;;;;;;15.52;100.00;102594.19;5093830;28;20017;-31
2022/08/08 03:23:39;;;;;;;;;;;;;;;15.57;100.00;102589.69;5092341;28;19920;-37
2022/08/08 03:26:30;;;;;;;;;;;;;;;15.63;100.00;102599.75;5092340;28;19927;-28
2022/08/08 03:29:12;;;;;;;;;;;;;;;15.70;100.00;102591.84;5093377;28;19920;-32
2022/08/08 03:34:38;;;;;;;;;;;;;;;15.84;100.00;102590.88;5093316;28;19927;-35
2022/08/08 03:37:09;;;;;;;;;;;;;;;15.91;100.00;102599.00;5092171;28;19920;-32
2022/08/08 03:40:00;;;;;;;;;;;;;;;15.96;100.00;102603.78;5092680;28;19927;-32
2022/08/08 03:42:31;;;;;;;;;;;;;;;16.02;100.00;102606.22;5093007;28;19963;-33
2022/08/08 03:45:00;;;;;;;;;;;;;;;16.06;100.00;102601.69;5092986;28;20381;-32
2022/08/08 03:47:56;;;;;;;;;;;;;;;16.12;100.00;102602.50;5091953;28;19986;-35
2022/08/08 03:50:26;;;;;;;;;;;;;;;16.16;100.00;102597.97;5093077;28;20324;-36
2022/08/08 03:52:55;;;;;;;;;;;;;;;16.20;100.00;102601.84;5092582;28;19927;-37
2022/08/08 03:55:27;;;;;;;;;;;;;;;16.26;100.00;102603.50;5092887;28;19930;-31
2022/08/08 03:58:19;;;;;;;;;;;;;;;16.33;100.00;102600.34;5092434;28;20257;-30
2022/08/08 04:01:15;;;;;;;;;;;;;;;16.37;100.00;102607.94;5088862;28;19920;-32
2022/08/08 04:03:51;;;;;;;;;;;;;;;16.42;100.00;102612.66;5089265;28;19924;-38
2022/08/08 04:06:30;;;;;;;;;;;;;;;16.46;100.00;102614.59;5072715;28;19920;-37
2022/08/08 04:09:01;;;;;;;;;;;;;;;16.49;100.00;102614.00;5088425;28;19920;-38
2022/08/08 04:11:41;;;;;;;;;;;;;;;16.53;100.00;102609.47;5091627;28;20327;-34
2022/08/08 04:14:29;;;;;;;;;;;;;;;16.59;100.00;102612.22;5091507;28;19973;-30
2022/08/08 04:17:01;;;;;;;;;;;;;;;16.63;100.00;102604.84;5092668;28;19970;-34
2022/08/08 04:19:33;;;;;;;;;;;;;;;16.66;100.00;102612.75;5092135;28;19926;-32
2022/08/08 04:22:03;;;;;;;;;;;;;;;16.70;100.00;102611.84;5091292;28;19926;-41
2022/08/08 04:24:36;;;;;;;;;;;;;;;16.75;100.00;102610.97;5091851;28;19939;-32
2022/08/08 04:27:10;;;;;;;;;;;;;;;16.77;100.00;102614.31;5072329;28;20385;-31
2022/08/08 04:29:57;;;;;;;;;;;;;;;16.80;100.00;102617.38;5090031;28;20303;-33
2022/08/08 04:32:46;;;;;;;;;;;;;;;16.85;100.00;102610.84;5092133;28;19931;-32
2022/08/08 04:35:17;;;;;;;;;;;;;;;16.88;100.00;102611.09;5091049;28;19966;-32
2022/08/08 04:37:48;;;;;;;;;;;;;;;16.91;100.00;102609.66;5092258;28;19920;-33
2022/08/08 04:40:20;;;;;;;;;;;;;;;16.92;100.00;102611.34;5091766;28;19920;-34
2022/08/08 04:42:55;;;;;;;;;;;;;;;16.94;100.00;102619.50;5091510;28;19974;-32
2022/08/08 04:45:35;;;;;;;;;;;;;;;16.95;100.00;102613.56;5091899;28;19924;-32
2022/08/08 04:48:04;;;;;;;;;;;;;;;16.98;100.00;102621.44;5091972;28;19923;-34
2022/08/08 04:50:39;;;;;;;;;;;;;;;17.00;100.00;102621.09;5090297;28;19954;-32
2022/08/08 04:53:13;;;;;;;;;;;;;;;17.01;100.00;102625.59;5091913;28;20037;-38
2022/08/08 04:56:00;;;;;;;;;;;;;;;17.01;100.00;102617.13;5090379;28;19939;-39
2022/08/08 04:58:33;;;;;;;;;;;;;;;17.04;100.00;102616.53;5090295;28;19924;-40
2022/08/08 05:01:02;;;;;;;;;;;;;;;17.05;100.00;102615.41;5091113;28;19950;-42
2022/08/08 05:03:39;;;;;;;;;;;;;;;17.06;100.00;102620.75;5091216;28;19931;-32
2022/08/08 05:06:28;;;;;;;;;;;;;;;17.09;100.00;102622.13;5090673;28;19920;-37
2022/08/08 05:08:57;;;;;;;;;;;;;;;17.12;100.00;102615.88;5091753;28;19919;-36
2022/08/08 05:11:31;;;;;;;;;;;;;;;17.13;100.00;102621.22;5089027;28;19958;-40
2022/08/08 05:14:10;;;;;;;;;;;;;;;17.17;100.00;102632.75;5069817;28;19925;-38
2022/08/08 05:16:41;;;;;;;;;;;;;;;17.17;100.00;102627.13;5090076;28;19928;-31
2022/08/08 05:19:29;;;;;;;;;;;;;;;17.19;100.00;102633.28;5089222;28;19961;-32
2022/08/08 05:22:19;;;;;;;;;;;;;;;17.20;100.00;102632.13;5088266;28;20285;-31
2022/08/08 05:24:49;;;;;;;;;;;;;;;17.24;100.00;102630.41;5088241;28;19924;-31
2022/08/08 05:27:20;;;;;;;;;;;;;;;17.27;100.00;102635.44;5090355;28;19920;-33
2022/08/08 05:29:52;;;;;;;;;;;;;;;17.29;100.00;102637.97;5090334;28;19920;-32
2022/08/08 05:32:25;;;;;;;;;;;;;;;17.30;100.00;102645.28;5089395;28;19935;-37
2022/08/08 05:35:00;;;;;;;;;;;;;;;17.31;100.00;102653.47;5090169;28;19924;-32
2022/08/08 05:37:34;;;;;;;;;;;;;;;17.33;100.00;102644.69;5088785;28;20400;-38
2022/08/08 05:40:21;;;;;;;;;;;;;;;17.35;100.00;102646.06;5087771;28;19920;-34
2022/08/08 05:42:59;;;;;;;;;;;;;;;17.38;100.00;102647.47;5076203;28;19919;-31
2022/08/08 05:45:31;;;;;;;;;;;;;;;17.38;100.00;102645.47;5089376;28;20284;-32
2022/08/08 05:48:11;;;;;;;;;;;;;;;17.41;100.00;102647.66;5069359;28;19964;-32
2022/08/08 05:50:41;;;;;;;;;;;;;;;17.45;100.00;102653.56;5071757;28;19927;-32
2022/08/08 05:53:13;;;;;;;;;;;;;;;17.49;100.00;102649.84;5085800;28;19934;-33
2022/08/08 05:56:01;;;;;;;;;;;;;;;17.53;100.00;102653.75;5091032;28;19942;-34
2022/08/08 05:58:42;;;;;;;;;;;;;;;17.60;100.00;102659.00;5090254;28;20285;-31
2022/08/08 06:01:27;;;;;;;;;;;;;;;17.65;100.00;102663.78;5088886;28;19974;-32
2022/08/08 06:04:18;;;;;;;;;;;;;;;17.70;100.00;102658.06;5081499;28;19928;-32
2022/08/08 06:06:52;;;;;;;;;;;;;;;17.73;100.00;102654.63;5089180;28;19928;-38
2022/08/08 06:09:27;;;;;;;;;;;;;;;17.77;100.00;102661.34;5090138;28;19992;-34
2022/08/08 06:12:15;;;;;;;;;;;;;;;17.83;100.00;102674.25;5078683;28;19930;-37
2022/08/08 06:14:56;;;;;;;;;;;;;;;17.89;100.00;102673.03;5089226;28;19981;-35
2022/08/08 06:17:27;;;;;;;;;;;;;;;17.96;100.00;102667.84;5089283;28;19926;-32
2022/08/08 06:20:14;;;;;;;;;;;;;;;18.06;100.00;102664.03;5089765;28;20007;-34
2022/08/08 06:22:43;;;;;;;;;;;;;;;18.19;100.00;102666.91;5088534;28;20381;-32
2022/08/08 06:25:17;;;;;;;;;;;;;;;18.31;100.00;102672.09;5089501;28;19931;-32
2022/08/08 06:28:09;;;;;;;;;;;;;;;18.42;100.00;102679.25;5090255;28;19973;-34
2022/08/08 06:30:40;;;;;;;;;;;;;;;18.55;100.00;102683.28;5089879;28;20294;-40
2022/08/08 06:33:11;;;;;;;;;;;;;;;18.72;100.00;102683.59;5090550;28;20331;-32
2022/08/08 06:35:45;;;;;;;;;;;;;;;18.88;100.00;102686.97;5092926;28;19920;-31
2022/08/08 06:38:36;;;;;;;;;;;;;;;19.06;100.00;102679.56;5094436;28;19920;-34
2022/08/08 06:41:11;;;;;;;;;;;;;;;19.24;100.00;102682.28;5094822;28;20450;-34
2022/08/08 06:43:43;;;;;;;;;;;;;;;19.55;100.00;102685.38;5093763;28;20400;-33
2022/08/08 06:46:25;;;;;;;;;;;;;;;19.80;100.00;102685.94;5092929;28;19981;-33
2022/08/08 06:48:58;;;;;;;;;;;;;;;19.91;100.00;102691.09;5092268;28;19928;-37
2022/08/08 06:51:25;;;;;;;;;;;;;;;20.00;100.00;102687.47;5093004;28;19977;-32
2022/08/08 06:54:15;;;;;;;;;;;;;;;20.10;100.00;102690.94;5094301;28;19919;-36
2022/08/08 06:56:46;;;;;;;;;;;;;;;20.23;100.00;102690.03;5093589;28;20308;-36
2022/08/08 06:59:20;;;;;;;;;;;;;;;20.46;100.00;102695.75;5095416;28;19920;-37
2022/08/08 07:01:53;;;;;;;;;;;;;;;20.70;100.00;102690.59;5094363;28;20269;-35
2022/08/08 07:04:51;;;;;;;;;;;;;;;21.02;100.00;102682.94;5093035;28;20373;-39
2022/08/08 07:07:26;;;;;;;;;;;;;;;21.48;98.82;102691.84;5094116;28;19927;-31
2022/08/08 07:10:01;;;;;;;;;;;;;;;21.96;96.69;102691.81;5092937;28;19920;-38
2022/08/08 07:12:41;;;;;;;;;;;;;;;22.53;93.95;102685.16;5073641;28;19924;-31
2022/08/08 07:15:11;;;;;;;;;;;;;;;23.07;91.34;102685.56;5090085;28;19964;-33
2022/08/08 07:18:02;;;;;;;;;;;;;;;23.87;89.65;102686.53;5089949;28;19931;-41
2022/08/08 07:20:54;;;;;;;;;;;;;;;24.74;83.66;102693.22;5094640;28;20354;-37
2022/08/08 07:23:22;;;;;;;;;;;;;;;25.41;77.66;102692.75;5094876;28;20386;-37
2022/08/08 07:25:55;;;;;;;;;;;;;;;26.08;73.39;102696.19;5092641;28;19920;-38
2022/08/08 07:28:26;;;;;;;;;;;;;;;26.32;67.45;102698.19;5093962;28;19924;-32
2022/08/08 07:31:03;;;;;;;;;;;;;;;26.17;65.03;102699.75;5092791;28;19923;-34
2022/08/08 07:33:31;;;;;;;;;;;;;;;25.87;64.92;102695.50;5093616;28;19924;-35
2022/08/08 07:36:07;;;;;;;;;;;;;;;25.54;65.75;102705.06;5093017;28;19924;-32
2022/08/08 07:38:37;;;;;;;;;;;;;;;25.20;66.07;102711.19;5092966;28;19955;-32
2022/08/08 07:41:09;;;;;;;;;;;;;;;25.19;69.82;102703.81;5093158;28;19927;-38
2022/08/08 07:43:53;;;;;;;;;;;;;;;25.24;66.30;102709.28;5073306;28;20324;-32
2022/08/08 07:46:21;;;;;;;;;;;;;;;25.14;67.73;102707.75;5089407;28;19919;-41
2022/08/08 07:49:02;;;;;;;;;;;;;;;25.50;70.04;102709.81;5093461;28;19927;-39
2022/08/08 07:51:33;;;;;;;;;;;;;;;26.04;67.71;102700.97;5092769;28;19943;-33
2022/08/08 07:54:29;;;;;;;;;;;;;;;26.40;62.37;102706.63;5092526;28;20369;-39
2022/08/08 07:57:07;;;;;;;;;;;;;;;26.39;63.17;102709.84;5092527;28;19927;-37
2022/08/08 07:59:41;;;;;;;;;;;;;;;26.27;61.10;102713.56;5092312;28;19963;-33
2022/08/08 08:02:14;;;;;;;;;;;;;;;25.98;62.24;102713.88;5092816;28;19926;-40
2022/08/08 08:05:02;;;;;;;;;;;;;;;25.70;63.69;102713.78;5092760;28;19970;-38
2022/08/08 08:07:42;;;;;;;;;;;;;;;25.49;63.59;102719.56;5088913;28;19923;-32
2022/08/08 08:10:16;;;;;;;;;;;;;;;25.29;64.51;102720.50;5092810;28;20289;-32
2022/08/08 08:13:00;;;;;;;;;;;;;;;25.05;64.94;102727.00;5078767;28;19924;-40
2022/08/08 08:15:30;;;;;;;;;;;;;;;24.82;66.96;102729.38;5091432;28;19920;-37
2022/08/08 08:18:02;;;;;;;;;;;;;;;25.04;72.29;102728.19;5089302;28;19927;-33
2022/08/08 08:20:30;;;;;;;;;;;;;;;25.75;70.10;102722.13;5076805;28;19966;-37
2022/08/08 08:23:03;;;;;;;;;;;;;;;26.20;63.80;102723.94;5108497;28;19920;-33
2022/08/08 08:25:33;;;;;;;;;;;;;;;26.18;62.02;102723.50;5092369;28;19920;-35
2022/08/08 08:28:10;;;;;;;;;;;;;;;26.06;62.88;102733.75;5091163;28;19920;-41
2022/08/08 08:30:48;;;;;;;;;;;;;;;25.95;62.42;102731.75;5092184;28;19966;-37
2022/08/08 08:33:17;;;;;;;;;;;;;;;25.72;62.72;102728.56;5091537;28;19924;-34
2022/08/08 08:35:47;;;;;;;;;;;;;;;25.53;63.54;102742.56;5091512;28;20035;-39
2022/08/08 08:38:37;;;;;;;;;;;;;;;25.32;64.91;102752.06;5091488;28;20011;-33
2022/08/08 08:41:17;;;;;;;;;;;;;;;25.13;65.02;102748.94;5092302;28;19926;-32
2022/08/08 08:43:50;;;;;;;;;;;;;;;24.93;65.17;102755.50;5093535;28;20380;-32
2022/08/08 08:46:19;;;;;;;;;;;;;;;24.85;67.02;102745.81;5092036;28;20015;-41
2022/08/08 08:48:53;;;;;;;;;;;;;;;25.29;69.56;102749.91;5091366;28;19927;-35
2022/08/08 08:51:25;;;;;;;;;;;;;;;26.02;68.94;102749.97;5092070;28;19930;-35
2022/08/08 08:54:00;;;;;;;;;;;;;;;26.73;63.62;102757.94;5091784;28;19924;-37
2022/08/08 08:56:35;;;;;;;;;;;;;;;27.14;61.24;102757.91;5092602;28;20407;-37
2022/08/08 08:59:10;;;;;;;;;;;;;;;27.69;61.07;102754.91;5091772;28;19920;-32
2022/08/08 09:01:51;;;;;;;;;;;;;;;28.20;55.64;102748.34;5091936;28;19931;-33
2022/08/08 09:04:25;;;;;;;;;;;;;;;28.50;55.41;102766.69;5089852;28;19920;-39
2022/08/08 09:07:15;;;;;;;;;;;;;;;28.65;52.00;102768.66;5091509;28;19927;-39
2022/08/08 09:09:48;;;;;;;;;;;;;;;28.44;50.89;102768.19;5090859;28;19924;-33
2022/08/08 09:12:27;;;;;;;;;;;;;;;28.19;52.63;102761.84;5091573;28;20327;-38
2022/08/08 09:14:57;;;;;;;;;;;;;;;28.41;53.08;102757.44;5088240;28;19926;-39
2022/08/08 09:17:30;;;;;;;;;;;;;;;28.85;52.81;102760.91;5091963;28;19930;-34
2022/08/08 09:20:19;;;;;;;;;;;;;;;29.52;50.94;102769.22;5089395;28;19924;-33
2022/08/08 09:23:07;;;;;;;;;;;;;;;30.24;48.86;102764.25;5091286;28;19928;-33
2022/08/08 09:25:42;;;;;;;;;;;;;;;30.68;46.16;102764.50;5090302;28;19920;-35
2022/08/08 09:28:34;;;;;;;;;;;;;;;30.84;44.92;102764.28;5090919;28;19920;-38
2022/08/08 09:31:13;;;;;;;;;;;;;;;30.68;45.13;102766.53;5090768;28;19920;-34
2022/08/08 09:33:45;;;;;;;;;;;;;;;30.40;45.16;102767.78;5091018;28;19954;-40
2022/08/08 09:36:33;;;;;;;;;;;;;;;29.97;45.68;102772.06;5091554;28;19967;-39
2022/08/08 09:39:05;;;;;;;;;;;;;;;29.63;46.87;102782.56;5089888;28;20369;-35
2022/08/08 09:41:52;;;;;;;;;;;;;;;29.34;47.73;102783.25;5091321;28;19955;-33
2022/08/08 09:44:46;;;;;;;;;;;;;;;28.94;48.20;102769.31;5091822;28;19920;-34
2022/08/08 09:47:14;;;;;;;;;;;;;;;28.53;49.43;102777.44;5092425;28;19920;-39
2022/08/08 09:50:03;;;;;;;;;;;;;;;28.20;51.11;102766.41;5092299;28;19992;-36
2022/08/08 09:52:41;;;;;;;;;;;;;;;28.03;52.19;102769.66;5091836;28;19930;-36
2022/08/08 09:55:29;;;;;;;;;;;;;;;27.75;52.66;102767.78;5092112;28;19920;-34
2022/08/08 09:58:19;;;;;;;;;;;;;;;27.58;53.90;102768.13;5072370;28;20022;-43
2022/08/08 10:01:07;;;;;;;;;;;;;;;27.43;54.88;102763.19;5091748;28;20356;-32
2022/08/08 10:03:57;;;;;;;;;;;;;;;27.30;54.58;102775.94;5091996;28;19923;-37
2022/08/08 10:06:29;;;;;;;;;;;;;;;27.18;54.89;102773.97;5090335;28;19973;-36
2022/08/08 10:09:01;;;;;;;;;;;;;;;27.07;55.66;102782.28;5092429;28;19920;-34
2022/08/08 10:11:30;;;;;;;;;;;;;;;26.94;56.54;102780.69;5097032;28;19938;-33
2022/08/08 10:14:19;;;;;;;;;;;;;;;26.75;56.21;102778.47;5098416;28;19920;-30
2022/08/08 10:17:03;;;;;;;;;;;;;;;26.62;57.70;102784.56;5095788;28;20331;-34
2022/08/08 10:19:53;;;;;;;;;;;;;;;26.59;57.17;102783.28;5097717;28;19927;-33
2022/08/08 10:22:25;;;;;;;;;;;;;;;26.54;57.60;102788.44;5097439;28;20408;-36
2022/08/08 10:24:55;;;;;;;;;;;;;;;26.51;57.86;102777.69;5098493;28;19963;-40
2022/08/08 10:27:27;;;;;;;;;;;;;;;26.46;58.88;102784.50;5098011;28;20346;-34
2022/08/08 10:30:04;;;;;;;;;;;;;;;26.59;58.77;102786.13;5098747;28;19927;-34
2022/08/08 10:32:31;;;;;;;;;;;;;;;26.74;58.88;102779.66;5095706;28;19920;-36
2022/08/08 10:35:01;;;;;;;;;;;;;;;26.92;58.48;102785.06;5097846;28;19924;-38
2022/08/08 10:37:31;;;;;;;;;;;;;;;27.23;58.35;102785.19;5097534;28;19943;-37
2022/08/08 10:40:12;;;;;;;;;;;;;;;27.57;55.73;102779.97;5098985;28;19966;-38
2022/08/08 10:42:44;;;;;;;;;;;;;;;27.84;53.63;102783.94;5097668;28;19926;-39
2022/08/08 10:45:13;;;;;;;;;;;;;;;27.90;53.02;102777.56;5098880;28;19920;-36
2022/08/08 10:47:43;;;;;;;;;;;;;;;28.00;53.14;102784.75;5098513;28;20368;-40
2022/08/08 10:50:22;;;;;;;;;;;;;;;28.27;52.11;102777.25;5099248;28;19920;-41
2022/08/08 10:52:50;;;;;;;;;;;;;;;28.37;51.25;102779.53;5098243;28;20408;-35
2022/08/08 10:55:18;;;;;;;;;;;;;;;28.31;50.83;102786.78;5097964;28;20358;-35
2022/08/08 10:58:07;;;;;;;;;;;;;;;28.28;52.02;102779.75;5098551;28;19920;-35
2022/08/08 11:00:41;;;;;;;;;;;;;;;28.56;50.90;102775.88;5099083;28;19938;-34
2022/08/08 11:03:40;;;;;;;;;;;;;;;28.93;50.30;102777.09;5098044;28;19959;-38
2022/08/08 11:06:31;;;;;;;;;;;;;;;29.27;49.39;102768.72;5098327;28;19934;-35
2022/08/08 11:09:01;;;;;;;;;;;;;;;29.45;47.41;102775.66;5098401;28;19924;-35
2022/08/08 11:11:37;;;;;;;;;;;;;;;29.66;47.01;102778.09;5098273;28;20454;-41
2022/08/08 11:14:25;;;;;;;;;;;;;;;29.88;46.09;102782.16;5088700;28;19923;-37
2022/08/08 11:16:56;;;;;;;;;;;;;;;29.87;44.28;102772.69;5096458;28;19942;-39
2022/08/08 11:19:27;;;;;;;;;;;;;;;29.72;46.37;102777.41;5098851;28;19973;-35
2022/08/08 11:21:58;;;;;;;;;;;;;;;29.79;45.33;102773.78;5095593;28;19920;-35
2022/08/08 11:24:27;;;;;;;;;;;;;;;29.94;45.03;102775.72;5094630;28;20278;-37
2022/08/08 11:26:57;;;;;;;;;;;;;;;30.04;45.56;102775.06;5094968;28;19926;-36
2022/08/08 11:29:26;;;;;;;;;;;;;;;30.30;45.70;102774.22;5091834;28;19970;-39
2022/08/08 11:32:17;;;;;;;;;;;;;;;30.60;43.50;102771.38;5094369;28;19928;-35
2022/08/08 11:34:46;;;;;;;;;;;;;;;30.83;43.04;102774.16;5095241;28;20010;-36
2022/08/08 11:37:34;;;;;;;;;;;;;;;31.09;43.24;102776.94;5094020;28;19924;-39
2022/08/08 11:40:21;;;;;;;;;;;;;;;31.32;42.68;102773.09;5085267;28;20372;-36
2022/08/08 11:42:54;;;;;;;;;;;;;;;31.54;42.73;102765.47;5094763;28;19923;-36
2022/08/08 11:45:22;;;;;;;;;;;;;;;31.77;41.89;102771.91;5083095;28;19943;-36
2022/08/08 11:47:52;;;;;;;;;;;;;;;31.93;40.44;102774.50;5094303;28;19994;-35
2022/08/08 11:50:32;;;;;;;;;;;;;;;32.05;39.73;102768.41;5084149;28;20018;-40
2022/08/08 11:53:01;;;;;;;;;;;;;;;32.10;39.77;102771.75;5093438;28;20438;-35
2022/08/08 11:55:34;;;;;;;;;;;;;;;32.15;39.31;102771.38;5094650;28;19985;-37
2022/08/08 11:58:05;;;;;;;;;;;;;;;32.15;39.01;102764.78;5093926;28;20292;-35
2022/08/08 12:00:45;;;;;;;;;;;;;;;32.07;38.79;102763.03;5094322;28;19942;-39
2022/08/08 12:03:17;;;;;;;;;;;;;;;32.07;39.28;102768.81;5094125;28;19927;-35
2022/08/08 12:05:48;;;;;;;;;;;;;;;32.08;38.81;102770.47;5093592;28;19997;-36
2022/08/08 12:08:16;;;;;;;;;;;;;;;32.16;39.49;102766.44;5093894;28;19924;-36
2022/08/08 12:10:47;;;;;;;;;;;;;;;32.18;38.39;102761.88;5094147;28;19927;-35
2022/08/08 12:13:15;;;;;;;;;;;;;;;32.16;39.13;102760.66;5093366;28;19943;-33
2022/08/08 12:15:47;;;;;;;;;;;;;;;32.23;39.05;102766.47;5093937;28;19926;-34
2022/08/08 12:18:18;;;;;;;;;;;;;;;32.16;37.82;102755.69;5094388;28;19927;-35
2022/08/08 12:20:48;;;;;;;;;;;;;;;32.00;38.36;102760.09;5093350;28;19935;-33
2022/08/08 12:23:26;;;;;;;;;;;;;;;32.00;39.59;102762.97;5094168;28;20018;-39
2022/08/08 12:26:14;;;;;;;;;;;;;;;32.02;38.53;102766.31;5094053;28;19989;-40
2022/08/08 12:28:54;;;;;;;;;;;;;;;32.03;39.17;102750.63;5093867;28;19927;-33
2022/08/08 12:31:30;;;;;;;;;;;;;;;32.05;39.38;102757.66;5093875;28;19920;-35
2022/08/08 12:34:07;;;;;;;;;;;;;;;32.14;39.48;102751.56;5092476;28;19955;-34
2022/08/08 12:36:39;;;;;;;;;;;;;;;32.26;38.37;102756.19;5089986;28;20323;-39
2022/08/08 12:39:13;;;;;;;;;;;;;;;32.29;38.63;102756.22;5093725;28;19952;-38
2022/08/08 12:41:41;;;;;;;;;;;;;;;32.28;39.03;102757.44;5092829;28;19920;-37
2022/08/08 12:44:29;;;;;;;;;;;;;;;32.30;37.82;102754.16;5093454;28;19958;-36
2022/08/08 12:46:59;;;;;;;;;;;;;;;32.25;37.80;102757.41;5090295;28;19938;-33
2022/08/08 12:49:31;;;;;;;;;;;;;;;32.32;38.13;102760.34;5093010;28;19923;-39
2022/08/08 12:52:19;;;;;;;;;;;;;;;32.31;37.21;102758.69;5090475;28;20355;-33
2022/08/08 12:55:02;;;;;;;;;;;;;;;32.18;38.69;102761.03;5092477;28;19981;-33
2022/08/08 12:57:39;;;;;;;;;;;;;;;32.08;39.03;102759.75;5093556;28;20297;-37
2022/08/08 13:00:27;;;;;;;;;;;;;;;32.08;39.12;102753.16;5093204;28;19935;-34
2022/08/08 13:03:05;;;;;;;;;;;;;;;32.00;38.98;102758.03;5082768;28;19950;-34
2022/08/08 13:05:36;;;;;;;;;;;;;;;31.87;38.84;102753.00;5093209;28;20402;-35
2022/08/08 13:08:24;;;;;;;;;;;;;;;31.75;39.40;102754.16;5084843;28;19926;-34
2022/08/08 13:11:03;;;;;;;;;;;;;;;31.80;39.81;102750.88;5092850;28;19932;-36
2022/08/08 13:13:32;;;;;;;;;;;;;;;31.71;39.39;102747.50;5093108;28;19928;-35
2022/08/08 13:16:17;;;;;;;;;;;;;;;31.61;40.10;102757.69;5092052;28;20377;-39
2022/08/08 13:18:45;;;;;;;;;;;;;;;31.61;39.40;102754.81;5093073;28;19926;-36
2022/08/08 13:21:30;;;;;;;;;;;;;;;31.66;40.20;102754.47;5092794;28;19955;-35
2022/08/08 13:24:18;;;;;;;;;;;;;;;31.56;39.38;102760.97;5092389;28;19920;-35
2022/08/08 13:27:06;;;;;;;;;;;;;;;31.49;39.47;102755.13;5092759;28;19931;-37
2022/08/08 13:29:47;;;;;;;;;;;;;;;31.40;39.04;102758.31;5092516;28;19989;-44
2022/08/08 13:32:16;;;;;;;;;;;;;;;31.25;39.98;102755.69;5092476;28;19920;-41
2022/08/08 13:34:49;;;;;;;;;;;;;;;31.10;40.88;102760.47;5092848;28;19924;-33